LOT6669 EPWA-LICJ
Flight info
| Callsign | LOT6669 |
|---|---|
| Flight time | N/A |
| Altitude | 38000 |
| Route | EVINA Z175 SKARY DCT KOPAT DCT GYR DCT KOPRY DCT DEVUL DCT VELUG DCT EKMOT DCT SOR DCT AMANO DCT ROSAS |
| Aircraft | B38M/M-SDE1FGHILORVWXY/HB1 |
Departure
| Time | 2026-04-30 14:55 |
|---|---|
| Airport | Warsaw Chopin Airport (EPWA) |
Arrival
| Time | N/A |
|---|---|
| Airport | Falcone–Borsellino Airport (LICJ) |
| Time | Latitude | Longitude | Altitude | Speed | Heading |
|---|---|---|---|---|---|
| 2026-04-30 14:27 | 52.17378 | 20.97049 | 337 ft | 0 kts | 242° |
| 2026-04-30 14:44 | 52.17383 | 20.97066 | 337 ft | 3 kts | 242° |
| 2026-04-30 14:44 | 52.17393 | 20.97095 | 336 ft | 3 kts | 242° |
| 2026-04-30 14:44 | 52.17400 | 20.97122 | 336 ft | 3 kts | 268° |
| 2026-04-30 14:44 | 52.17396 | 20.97144 | 338 ft | 3 kts | 323° |
| 2026-04-30 14:45 | 52.17387 | 20.97153 | 337 ft | 2 kts | 331° |
| 2026-04-30 14:45 | 52.17376 | 20.97162 | 338 ft | 0 kts | 332° |
| 2026-04-30 14:45 | 52.17376 | 20.97163 | 338 ft | 0 kts | 332° |
| 2026-04-30 14:47 | 52.17377 | 20.97161 | 339 ft | 1 kts | 332° |
| 2026-04-30 14:48 | 52.17404 | 20.97137 | 337 ft | 9 kts | 332° |
| 2026-04-30 14:48 | 52.17486 | 20.97066 | 341 ft | 18 kts | 331° |
| 2026-04-30 14:48 | 52.17594 | 20.96971 | 338 ft | 14 kts | 332° |
| 2026-04-30 14:48 | 52.17618 | 20.96871 | 339 ft | 8 kts | 242° |
| 2026-04-30 14:49 | 52.17579 | 20.96766 | 339 ft | 14 kts | 239° |
| 2026-04-30 14:49 | 52.17517 | 20.96601 | 340 ft | 20 kts | 233° |
| 2026-04-30 14:49 | 52.17442 | 20.96425 | 337 ft | 17 kts | 236° |
| 2026-04-30 14:49 | 52.17374 | 20.96412 | 341 ft | 10 kts | 153° |
| 2026-04-30 14:50 | 52.17225 | 20.96542 | 339 ft | 14 kts | 152° |
| 2026-04-30 14:50 | 52.17134 | 20.96621 | 337 ft | 16 kts | 152° |
| 2026-04-30 14:51 | 52.16849 | 20.96870 | 341 ft | 24 kts | 152° |
| 2026-04-30 14:51 | 52.16718 | 20.96983 | 337 ft | 16 kts | 152° |
| 2026-04-30 14:51 | 52.16609 | 20.97248 | 339 ft | 19 kts | 115° |
| 2026-04-30 14:52 | 52.16554 | 20.97445 | 339 ft | 20 kts | 115° |
| 2026-04-30 14:52 | 52.16410 | 20.97956 | 347 ft | 23 kts | 115° |
| 2026-04-30 14:52 | 52.16342 | 20.98197 | 337 ft | 24 kts | 115° |
| 2026-04-30 14:53 | 52.16240 | 20.98468 | 341 ft | 12 kts | 180° |
| 2026-04-30 14:53 | 52.16156 | 20.98414 | 340 ft | 14 kts | 204° |
| 2026-04-30 14:54 | 52.16121 | 20.98331 | 337 ft | 0 kts | 293° |
| 2026-04-30 14:55 | 52.16198 | 20.98056 | 341 ft | 59 kts | 294° |
| 2026-04-30 14:55 | 52.16458 | 20.97127 | 339 ft | 119 kts | 295° |
| 2026-04-30 14:55 | 52.17492 | 20.93447 | 1134 ft | 170 kts | 296° |
| 2026-04-30 14:56 | 52.18279 | 20.90351 | 2226 ft | 185 kts | 288° |
| 2026-04-30 14:56 | 52.17983 | 20.85503 | 3121 ft | 238 kts | 257° |
| 2026-04-30 14:57 | 52.17554 | 20.82905 | 4130 ft | 241 kts | 258° |
| 2026-04-30 14:57 | 52.16682 | 20.77384 | 5542 ft | 268 kts | 259° |
| 2026-04-30 14:58 | 52.15549 | 20.71502 | 7273 ft | 282 kts | 240° |
| 2026-04-30 14:58 | 52.14211 | 20.69111 | 8077 ft | 292 kts | 217° |
| 2026-04-30 14:58 | 52.10309 | 20.66964 | 9633 ft | 305 kts | 195° |
| 2026-04-30 14:59 | 52.06130 | 20.65050 | 10943 ft | 325 kts | 195° |
| 2026-04-30 15:00 | 51.99038 | 20.61884 | 12186 ft | 371 kts | 194° |
| 2026-04-30 15:00 | 51.93988 | 20.59679 | 13608 ft | 381 kts | 194° |
| 2026-04-30 15:01 | 51.88796 | 20.57424 | 14930 ft | 391 kts | 193° |
| 2026-04-30 15:01 | 51.86155 | 20.56280 | 15572 ft | 395 kts | 193° |
| 2026-04-30 15:01 | 51.80786 | 20.53959 | 16860 ft | 403 kts | 193° |
| 2026-04-30 15:02 | 51.78064 | 20.52784 | 17491 ft | 407 kts | 193° |
| 2026-04-30 15:02 | 51.75315 | 20.51599 | 18113 ft | 411 kts | 193° |
| 2026-04-30 15:03 | 51.66910 | 20.47987 | 19738 ft | 422 kts | 193° |
| 2026-04-30 15:03 | 51.61179 | 20.45532 | 20735 ft | 430 kts | 193° |
| 2026-04-30 15:04 | 51.55345 | 20.43040 | 21728 ft | 437 kts | 192° |
| 2026-04-30 15:04 | 51.46413 | 20.39238 | 23169 ft | 448 kts | 192° |
| 2026-04-30 15:05 | 51.37344 | 20.34954 | 24453 ft | 460 kts | 204° |
| 2026-04-30 15:06 | 51.31543 | 20.30616 | 25184 ft | 467 kts | 203° |
| 2026-04-30 15:06 | 51.25613 | 20.26223 | 25901 ft | 473 kts | 203° |
| 2026-04-30 15:07 | 51.19604 | 20.21780 | 26611 ft | 479 kts | 203° |
| 2026-04-30 15:07 | 51.13514 | 20.17291 | 27276 ft | 485 kts | 202° |
| 2026-04-30 15:08 | 51.07348 | 20.12760 | 27946 ft | 491 kts | 202° |
| 2026-04-30 15:08 | 50.97966 | 20.05890 | 28903 ft | 499 kts | 202° |
| 2026-04-30 15:09 | 50.91619 | 20.01260 | 29516 ft | 504 kts | 202° |
| 2026-04-30 15:09 | 50.85219 | 19.96604 | 30140 ft | 509 kts | 202° |
| 2026-04-30 15:10 | 50.78745 | 19.91909 | 30691 ft | 513 kts | 202° |
| 2026-04-30 15:11 | 50.65711 | 19.82501 | 31831 ft | 517 kts | 202° |
| 2026-04-30 15:11 | 50.59157 | 19.77793 | 32485 ft | 516 kts | 202° |
| 2026-04-30 15:12 | 50.49401 | 19.70810 | 33607 ft | 512 kts | 202° |
| 2026-04-30 15:13 | 50.42944 | 19.66206 | 34316 ft | 509 kts | 202° |
| 2026-04-30 15:14 | 50.30118 | 19.57103 | 35445 ft | 504 kts | 203° |
| 2026-04-30 15:14 | 50.20559 | 19.50353 | 36234 ft | 500 kts | 203° |
| 2026-04-30 15:16 | 50.04775 | 19.39272 | 37371 ft | 496 kts | 204° |
| 2026-04-30 15:17 | 49.92293 | 19.30567 | 38162 ft | 493 kts | 204° |
| 2026-04-30 15:18 | 49.76658 | 19.19732 | 38368 ft | 490 kts | 204° |
| 2026-04-30 15:19 | 49.67312 | 19.13291 | 38365 ft | 490 kts | 204° |